createdAt,value
2022-09-07T00:02:19.684Z,1.40
2022-09-07T00:04:48.420Z,1.38
2022-09-07T00:07:15.826Z,1.23
2022-09-07T00:09:43.447Z,1.20
2022-09-07T00:12:10.871Z,1.80
2022-09-07T00:14:38.317Z,1.20
2022-09-07T00:17:05.790Z,1.70
2022-09-07T00:19:33.211Z,1.50
2022-09-07T00:22:01.971Z,1.23
2022-09-07T00:24:29.407Z,1.08
2022-09-07T00:26:57.023Z,1.65
2022-09-07T00:29:24.441Z,1.33
2022-09-07T00:31:51.912Z,1.08
2022-09-07T00:34:19.398Z,1.33
2022-09-07T00:36:46.807Z,1.20
2022-09-07T00:39:15.577Z,1.10
2022-09-07T00:41:43.033Z,1.42
2022-09-07T00:44:29.140Z,1.30
2022-09-07T00:46:56.662Z,1.20
2022-09-07T00:49:24.268Z,1.20
2022-09-07T00:51:53.380Z,1.20
2022-09-07T00:54:23.956Z,2.00
2022-09-07T00:56:52.703Z,1.90
2022-09-07T00:59:21.580Z,1.25
2022-09-07T01:01:49.437Z,1.20
2022-09-07T01:04:17.199Z,1.40
2022-09-07T01:06:44.653Z,1.30
2022-09-07T01:09:13.389Z,1.20
2022-09-07T01:11:43.670Z,1.30
2022-09-07T01:14:12.563Z,1.10
2022-09-07T01:16:46.039Z,1.25
2022-09-07T01:19:31.740Z,1.05
2022-09-07T01:22:04.501Z,1.52
2022-09-07T01:24:49.598Z,1.13
2022-09-07T01:27:46.897Z,1.35
2022-09-07T01:30:17.236Z,1.25
2022-09-07T01:32:59.516Z,1.23
2022-09-07T01:35:30.691Z,1.20
2022-09-07T01:38:03.388Z,1.23
2022-09-07T01:40:35.362Z,1.10
2022-09-07T01:43:05.294Z,1.30
2022-09-07T01:45:35.829Z,1.50
2022-09-07T01:48:05.430Z,1.50
2022-09-07T01:50:34.789Z,1.30
2022-09-07T01:53:03.823Z,1.60
2022-09-07T01:55:33.943Z,1.23
2022-09-07T01:58:03.148Z,1.30
2022-09-07T02:00:30.774Z,1.42
2022-09-07T02:03:01.815Z,1.10
2022-09-07T02:05:31.575Z,1.25
2022-09-07T02:08:01.350Z,1.15
2022-09-07T02:10:33.773Z,1.20
2022-09-07T02:13:04.250Z,1.20
2022-09-07T02:15:35.997Z,1.25
2022-09-07T02:18:06.527Z,1.02
2022-09-07T02:20:35.971Z,0.98
2022-09-07T02:23:05.377Z,1.17
2022-09-07T02:25:35.083Z,1.55
2022-09-07T02:28:05.326Z,1.20
2022-09-07T02:30:32.766Z,1.27
2022-09-07T02:33:00.459Z,1.40
2022-09-07T02:35:29.292Z,1.33
2022-09-07T02:37:57.267Z,1.60
2022-09-07T02:40:24.921Z,1.60
2022-09-07T02:42:52.374Z,1.42
2022-09-07T02:45:19.866Z,1.48
2022-09-07T02:47:53.167Z,1.40
2022-09-07T02:50:37.510Z,1.40
2022-09-07T02:53:12.544Z,1.20
2022-09-07T02:55:45.995Z,1.67
2022-09-07T02:58:19.302Z,1.40
2022-09-07T03:00:52.547Z,1.40
2022-09-07T03:03:23.338Z,1.35
2022-09-07T03:05:53.982Z,1.52
2022-09-07T03:08:23.584Z,1.60
2022-09-07T03:10:51.686Z,1.52
2022-09-07T03:13:22.902Z,1.15
2022-09-07T03:15:53.701Z,1.40
2022-09-07T03:18:23.475Z,1.30
2022-09-07T03:20:52.308Z,1.45
2022-09-07T03:23:19.678Z,1.98
2022-09-07T03:25:48.770Z,1.23
2022-09-07T03:28:16.514Z,1.40
2022-09-07T03:30:44.375Z,1.63
2022-09-07T03:33:12.196Z,1.52
2022-09-07T03:35:39.645Z,1.38
2022-09-07T03:38:08.436Z,1.70
2022-09-07T03:40:35.912Z,1.60
2022-09-07T03:43:03.340Z,1.60
2022-09-07T03:45:30.832Z,2.20
2022-09-07T03:47:58.828Z,1.70
2022-09-07T03:50:26.231Z,2.00
2022-09-07T03:52:53.668Z,1.80
2022-09-07T03:55:22.530Z,1.40
2022-09-07T03:57:49.940Z,1.80
2022-09-07T04:00:17.566Z,1.85
2022-09-07T04:02:45.009Z,1.45
2022-09-07T04:05:12.497Z,1.83
2022-09-07T04:07:39.904Z,1.75
2022-09-07T04:10:07.736Z,1.92
2022-09-07T04:12:36.451Z,1.35
2022-09-07T04:15:03.994Z,1.30
2022-09-07T04:17:31.385Z,1.60
2022-09-07T04:19:58.806Z,1.45
2022-09-07T04:22:26.255Z,1.70
2022-09-07T04:24:53.759Z,1.73
2022-09-07T04:27:21.167Z,1.50
2022-09-07T04:29:49.909Z,1.45
2022-09-07T04:32:17.416Z,1.67
2022-09-07T04:34:44.879Z,1.50
2022-09-07T04:37:12.805Z,1.35
2022-09-07T04:39:40.243Z,1.73
2022-09-07T04:42:07.878Z,1.70
2022-09-07T04:44:35.323Z,1.85
2022-09-07T04:47:04.113Z,2.03
2022-09-07T04:49:31.514Z,1.73
2022-09-07T04:51:58.899Z,2.00
2022-09-07T04:54:26.457Z,1.90
2022-09-07T04:56:53.860Z,1.80
2022-09-07T04:59:21.275Z,2.53
2022-09-07T05:01:48.735Z,1.80
2022-09-07T05:04:17.498Z,1.75
2022-09-07T05:06:45.055Z,1.70
2022-09-07T05:09:12.481Z,1.52
2022-09-07T05:11:39.915Z,1.77
2022-09-07T05:14:08.175Z,1.83
2022-09-07T05:16:35.686Z,1.88
2022-09-07T05:19:03.731Z,1.85
2022-09-07T05:21:33.582Z,1.90
2022-09-07T05:24:01.588Z,1.55
2022-09-07T05:26:29.944Z,1.95
2022-09-07T05:31:45.946Z,1.60
2022-09-07T05:36:57.624Z,2.45
2022-09-07T05:39:25.395Z,2.00
2022-09-07T05:41:52.939Z,1.77
2022-09-07T05:47:08.265Z,1.85
2022-09-07T05:49:35.831Z,1.90
2022-09-07T05:52:04.713Z,1.92
2022-09-07T05:54:32.137Z,1.80
2022-09-07T05:56:59.608Z,1.80
2022-09-07T05:59:27.067Z,1.90
2022-09-07T06:01:54.569Z,2.00
2022-09-07T06:04:22.014Z,1.92
2022-09-07T06:07:11.054Z,1.95
2022-09-07T06:12:26.429Z,2.42
2022-09-07T06:14:53.924Z,1.90
2022-09-07T06:17:21.334Z,2.00
2022-09-07T06:19:48.849Z,2.10
2022-09-07T06:22:16.294Z,2.20
2022-09-07T06:24:45.056Z,2.00
2022-09-07T06:27:12.507Z,2.67
2022-09-07T06:29:40.037Z,2.35
2022-09-07T06:34:54.958Z,2.00
2022-09-07T06:37:22.363Z,2.10
2022-09-07T06:39:51.159Z,2.30
2022-09-07T06:42:18.563Z,2.42
2022-09-07T06:44:46.005Z,2.10
2022-09-07T06:47:13.458Z,2.13
2022-09-07T06:49:40.847Z,2.00
2022-09-07T06:52:08.325Z,2.30
2022-09-07T06:57:24.563Z,2.20
2022-09-07T06:59:51.964Z,2.22
2022-09-07T07:02:19.529Z,2.22
2022-09-07T07:04:47.751Z,2.25
2022-09-07T07:07:15.206Z,2.20
2022-09-07T07:09:42.775Z,2.75
2022-09-07T07:12:10.264Z,2.00
2022-09-07T07:14:43.995Z,2.70
2022-09-07T07:17:12.352Z,2.10
2022-09-07T07:19:39.760Z,2.10
2022-09-07T07:22:23.770Z,2.45
2022-09-07T07:24:54.594Z,2.28
2022-09-07T07:27:22.466Z,2.60
2022-09-07T07:29:52.353Z,2.08
2022-09-07T07:32:19.846Z,2.40
2022-09-07T07:34:47.206Z,2.15
2022-09-07T07:37:15.667Z,2.30
2022-09-07T07:42:31.201Z,2.20
2022-09-07T07:47:49.923Z,2.45
2022-09-07T07:50:33.699Z,2.38
2022-09-07T07:55:49.303Z,2.55
2022-09-07T07:58:16.768Z,2.45
2022-09-07T08:01:01.021Z,2.30
2022-09-07T08:03:28.584Z,2.30
2022-09-07T08:05:56.453Z,2.67
2022-09-07T08:08:24.680Z,2.70
2022-09-07T08:10:52.108Z,2.60
2022-09-07T08:13:19.873Z,2.40
2022-09-07T08:15:48.585Z,2.65
2022-09-07T08:18:17.212Z,2.47
2022-09-07T08:20:44.548Z,2.67
2022-09-07T08:23:12.108Z,2.50
2022-09-07T08:25:39.598Z,2.83
2022-09-07T08:28:07.046Z,2.80
2022-09-07T08:30:34.442Z,2.83
2022-09-07T08:33:03.131Z,2.80
2022-09-07T08:35:30.522Z,2.83
2022-09-07T08:37:57.852Z,2.78
2022-09-07T08:40:25.199Z,3.00
2022-09-07T08:42:55.844Z,2.70
2022-09-07T08:45:28.443Z,2.83
2022-09-07T08:47:55.850Z,2.92
2022-09-07T08:50:28.598Z,3.03
2022-09-07T08:52:57.436Z,2.85
2022-09-07T08:55:27.779Z,3.33
2022-09-07T09:00:22.936Z,2.83
2022-09-07T09:05:42.053Z,2.75
2022-09-07T09:08:14.503Z,3.00
2022-09-07T09:10:47.798Z,2.70
2022-09-07T09:13:18.151Z,3.10
2022-09-07T09:15:51.673Z,3.13
2022-09-07T09:18:26.733Z,2.65
2022-09-07T09:20:56.613Z,3.40
2022-09-07T09:23:25.953Z,3.38
2022-09-07T09:25:54.440Z,3.10
2022-09-07T09:28:22.267Z,3.05
2022-09-07T09:30:50.018Z,3.40
2022-09-07T09:33:18.815Z,3.65
2022-09-07T09:35:46.971Z,3.33
2022-09-07T09:38:29.640Z,3.78
2022-09-07T09:40:57.674Z,3.55
2022-09-07T09:43:25.777Z,3.40
2022-09-07T09:48:42.458Z,3.60
2022-09-07T09:54:00.511Z,3.47
2022-09-07T09:56:38.283Z,3.63
2022-09-07T10:05:20.459Z,3.33
2022-09-07T10:07:51.764Z,3.28
2022-09-07T10:10:20.497Z,3.33
2022-09-07T10:12:47.911Z,3.78
2022-09-07T10:15:25.463Z,3.60
2022-09-07T10:17:52.952Z,3.65
2022-09-07T10:20:34.890Z,3.50
2022-09-07T10:23:03.146Z,3.85
2022-09-07T10:25:33.234Z,3.47
2022-09-07T10:30:28.036Z,3.80
2022-09-07T10:33:01.529Z,3.55
2022-09-07T10:35:29.609Z,3.38
2022-09-07T10:38:01.395Z,3.78
2022-09-07T10:40:31.908Z,3.40
2022-09-07T10:43:21.118Z,3.38
2022-09-07T10:45:57.207Z,3.30
2022-09-07T10:48:27.497Z,3.30
2022-09-07T10:50:57.084Z,3.60
2022-09-07T10:53:41.939Z,3.97
2022-09-07T10:56:11.258Z,3.30
2022-09-07T11:01:37.796Z,3.35
2022-09-07T11:04:13.735Z,3.40
2022-09-07T11:06:42.328Z,3.53
2022-09-07T11:09:18.520Z,3.50
2022-09-07T11:12:05.087Z,3.63
2022-09-07T11:14:36.555Z,3.47
2022-09-07T11:17:06.300Z,3.92
2022-09-07T11:19:37.427Z,3.67
2022-09-07T11:22:10.302Z,3.25
2022-09-07T11:24:41.549Z,3.78
2022-09-07T11:27:11.046Z,3.65
2022-09-07T11:29:43.991Z,3.88
2022-09-07T11:32:13.839Z,3.72
2022-09-07T11:37:11.289Z,3.35
2022-09-07T11:39:41.400Z,3.60
2022-09-07T11:45:03.940Z,3.35
2022-09-07T11:47:35.538Z,3.70
2022-09-07T11:50:02.892Z,3.50
2022-09-07T11:52:33.813Z,3.50
2022-09-07T11:55:05.388Z,3.88
2022-09-07T11:57:52.411Z,3.80
2022-09-07T12:00:24.743Z,3.83
2022-09-07T12:08:09.726Z,3.53
2022-09-07T12:10:42.006Z,4.00
2022-09-07T12:13:23.552Z,3.63
2022-09-07T12:15:55.990Z,3.72
2022-09-07T12:18:27.533Z,3.85
2022-09-07T12:20:55.103Z,3.83
2022-09-07T12:23:28.409Z,4.13
2022-09-07T12:26:15.727Z,3.92
2022-09-07T12:29:01.932Z,3.53
2022-09-07T12:31:57.284Z,3.95
2022-09-07T12:34:39.856Z,3.30
2022-09-07T12:37:22.604Z,3.70
2022-09-07T12:42:38.938Z,3.55
2022-09-07T12:45:25.128Z,3.10
2022-09-07T12:47:59.135Z,3.88
2022-09-07T12:50:28.437Z,3.60
2022-09-07T12:53:10.857Z,3.60
2022-09-07T12:58:46.307Z,3.80
2022-09-07T13:01:23.141Z,3.65
2022-09-07T13:03:58.592Z,3.60
2022-09-07T13:09:39.657Z,3.58
2022-09-07T13:15:32.500Z,4.03
2022-09-07T13:18:00.510Z,3.75
2022-09-07T13:20:33.886Z,4.13
2022-09-07T13:23:20.632Z,3.40
2022-09-07T13:25:55.786Z,3.97
2022-09-07T13:28:24.175Z,3.75
2022-09-07T13:30:57.156Z,3.50
2022-09-07T13:33:51.687Z,3.67
2022-09-07T13:36:25.427Z,3.30
2022-09-07T13:38:53.506Z,3.30
2022-09-07T13:41:22.914Z,3.50
2022-09-07T13:43:51.085Z,3.95
2022-09-07T13:46:26.352Z,3.63
2022-09-07T13:48:55.776Z,3.90
2022-09-07T13:51:26.404Z,3.70
2022-09-07T13:54:01.350Z,3.75
2022-09-07T13:56:33.878Z,3.38
2022-09-07T13:59:11.985Z,3.50
2022-09-07T14:01:43.934Z,3.50
2022-09-07T14:04:17.350Z,3.47
2022-09-07T14:06:46.054Z,3.50
2022-09-07T14:09:15.345Z,3.10
2022-09-07T14:11:43.720Z,2.88
2022-09-07T14:14:16.258Z,2.72
2022-09-07T14:16:44.680Z,2.83
2022-09-07T14:19:13.018Z,2.78
2022-09-07T14:21:40.940Z,3.40
2022-09-07T14:24:20.599Z,2.78
2022-09-07T14:26:48.802Z,2.95
2022-09-07T14:29:23.413Z,2.80
2022-09-07T14:31:51.153Z,3.00
2022-09-07T14:34:21.715Z,2.72
2022-09-07T14:36:49.734Z,2.85
2022-09-07T14:39:19.588Z,3.03
2022-09-07T14:41:47.343Z,3.13
2022-09-07T14:44:27.916Z,3.15
2022-09-07T14:46:56.981Z,3.05
2022-09-07T14:51:53.135Z,3.58
2022-09-07T14:54:23.419Z,3.22
2022-09-07T14:57:07.675Z,2.80
2022-09-07T14:59:39.632Z,3.25
2022-09-07T15:02:28.340Z,3.63
2022-09-07T15:05:14.500Z,3.13
2022-09-07T15:07:42.742Z,3.30
2022-09-07T15:10:14.987Z,3.22
2022-09-07T15:12:43.246Z,3.65
2022-09-07T15:15:11.361Z,3.55
2022-09-07T15:17:42.918Z,3.47
2022-09-07T15:20:29.535Z,3.10
2022-09-07T15:22:56.906Z,2.78
2022-09-07T15:25:25.715Z,3.15
2022-09-07T15:27:54.415Z,3.10
2022-09-07T15:30:21.944Z,2.97
2022-09-07T15:32:49.610Z,2.70
2022-09-07T15:35:17.060Z,2.55
2022-09-07T15:40:37.594Z,3.15
2022-09-07T15:43:16.477Z,2.60
2022-09-07T15:45:47.970Z,3.03
2022-09-07T15:48:16.084Z,2.83
2022-09-07T15:50:43.489Z,2.90
2022-09-07T15:54:07.497Z,3.25
2022-09-07T15:55:59.599Z,2.80
2022-09-07T15:58:26.982Z,3.08
2022-09-07T16:01:51.602Z,3.13
2022-09-07T16:03:41.851Z,2.92
2022-09-07T16:06:13.903Z,3.25
2022-09-07T16:08:41.667Z,3.20
2022-09-07T16:11:18.687Z,3.03
2022-09-07T16:13:47.006Z,3.25
2022-09-07T16:16:15.757Z,3.33
2022-09-07T16:18:46.915Z,3.33
2022-09-07T16:21:15.358Z,3.22
2022-09-07T16:23:43.528Z,3.67
2022-09-07T16:26:11.889Z,4.93
2022-09-07T16:28:41.081Z,6.80
2022-09-07T16:31:09.485Z,4.00
2022-09-07T16:33:37.337Z,3.88
2022-09-07T16:36:06.048Z,3.97
2022-09-07T16:38:49.048Z,3.63
2022-09-07T16:41:17.429Z,3.50
2022-09-07T16:43:46.323Z,3.42
2022-09-07T16:46:14.998Z,3.90
2022-09-07T16:48:42.909Z,3.85
2022-09-07T16:51:12.849Z,4.13
2022-09-07T16:53:40.207Z,3.55
2022-09-07T16:56:08.424Z,3.95
2022-09-07T16:58:37.480Z,4.57
2022-09-07T17:01:06.882Z,4.40
2022-09-07T17:03:34.432Z,4.00
2022-09-07T17:06:02.100Z,4.03
2022-09-07T17:08:29.542Z,3.67
2022-09-07T17:10:59.501Z,4.20
2022-09-07T17:13:26.880Z,3.60
2022-09-07T17:15:54.358Z,4.05
2022-09-07T17:21:10.587Z,3.45
2022-09-07T17:23:47.827Z,2.90
2022-09-07T17:26:18.193Z,2.80
2022-09-07T17:28:46.648Z,4.13
2022-09-07T17:32:23.831Z,3.47
2022-09-07T17:34:03.894Z,3.78
2022-09-07T17:36:31.763Z,3.42
2022-09-07T17:41:46.902Z,3.08
2022-09-07T17:44:14.347Z,4.18
2022-09-07T17:46:41.709Z,4.43
2022-09-07T17:49:12.328Z,4.18
2022-09-07T17:51:40.050Z,4.10
2022-09-07T17:54:11.638Z,4.32
2022-09-07T17:56:39.480Z,4.75
2022-09-07T18:01:54.624Z,4.88
2022-09-07T18:04:23.670Z,4.65
2022-09-07T18:06:51.102Z,4.72
2022-09-07T18:09:19.630Z,4.70
2022-09-07T18:11:48.989Z,4.85
2022-09-07T18:14:17.236Z,5.13
2022-09-07T18:16:45.890Z,5.32
2022-09-07T18:19:13.409Z,5.85
2022-09-07T18:21:43.294Z,6.43
2022-09-07T18:24:14.021Z,6.57
2022-09-07T18:26:41.785Z,6.60
2022-09-07T18:29:27.285Z,7.03
2022-09-07T18:31:55.764Z,7.38
2022-09-07T18:34:23.621Z,8.48
2022-09-07T18:36:52.290Z,7.72
2022-09-07T18:39:19.704Z,8.23
2022-09-07T18:41:47.077Z,8.90
2022-09-07T18:47:02.089Z,9.10
2022-09-07T18:49:29.702Z,8.38
2022-09-07T18:54:45.835Z,9.70
2022-09-07T18:57:13.577Z,8.95
2022-09-07T18:59:40.983Z,9.82
2022-09-07T19:02:09.579Z,10.10
2022-09-07T19:07:29.693Z,8.77
2022-09-07T19:09:57.419Z,8.98
2022-09-07T19:12:24.948Z,9.27
2022-09-07T19:14:52.268Z,8.93
2022-09-07T19:17:20.054Z,8.57
2022-09-07T19:19:48.295Z,9.15
2022-09-07T19:22:16.063Z,8.73
2022-09-07T19:24:44.743Z,9.00
2022-09-07T19:27:12.256Z,8.45
2022-09-07T19:29:39.598Z,8.63
2022-09-07T19:32:07.744Z,8.95
2022-09-07T19:34:36.099Z,8.80
2022-09-07T19:37:03.571Z,8.95
2022-09-07T19:39:31.013Z,8.70
2022-09-07T19:41:59.791Z,9.55
2022-09-07T19:44:27.872Z,8.50
2022-09-07T19:46:55.432Z,8.63
2022-09-07T19:49:23.071Z,8.65
2022-09-07T19:51:51.840Z,8.43
2022-09-07T19:54:19.477Z,9.25
2022-09-07T19:56:47.070Z,8.57
2022-09-07T19:59:15.983Z,9.55
2022-09-07T20:01:46.070Z,8.38
2022-09-07T20:04:19.604Z,8.75
2022-09-07T20:06:49.517Z,8.02
2022-09-07T20:09:17.639Z,8.80
2022-09-07T20:11:46.861Z,8.77
2022-09-07T20:14:16.154Z,9.10
2022-09-07T20:16:43.657Z,9.20
2022-09-07T20:19:11.695Z,9.15
2022-09-07T20:21:39.096Z,8.80
2022-09-07T20:24:06.683Z,8.75
2022-09-07T20:26:34.064Z,9.00
2022-09-07T20:29:25.723Z,9.25
2022-09-07T20:31:50.224Z,9.75
2022-09-07T20:34:17.552Z,9.23
2022-09-07T20:36:44.894Z,8.68
2022-09-07T20:39:14.719Z,8.80
2022-09-07T20:41:42.075Z,8.77
2022-09-07T20:44:10.009Z,8.10
2022-09-07T20:46:37.412Z,8.40
2022-09-07T20:49:06.182Z,8.57
2022-09-07T20:51:33.529Z,8.55
2022-09-07T20:54:00.878Z,9.02
2022-09-07T20:56:29.248Z,8.77
2022-09-07T20:58:57.628Z,8.27
2022-09-07T21:01:25.153Z,8.60
2022-09-07T21:03:53.894Z,8.85
2022-09-07T21:06:23.479Z,8.20
2022-09-07T21:08:51.250Z,9.13
2022-09-07T21:11:19.452Z,8.80
2022-09-07T21:13:46.954Z,9.20
2022-09-07T21:16:15.464Z,8.30
2022-09-07T21:18:43.975Z,8.88
2022-09-07T21:21:20.205Z,8.65
2022-09-07T21:23:49.432Z,8.82
2022-09-07T21:26:20.923Z,8.02
2022-09-07T21:28:48.335Z,8.35
2022-09-07T21:31:15.660Z,8.40
2022-09-07T21:33:43.022Z,8.10
2022-09-07T21:36:11.322Z,8.30
2022-09-07T21:38:39.311Z,7.70
2022-09-07T21:41:08.445Z,8.25
2022-09-07T21:43:36.229Z,8.02
2022-09-07T21:46:08.111Z,7.65
2022-09-07T21:48:35.741Z,7.65
2022-09-07T21:51:03.367Z,7.32
2022-09-07T21:53:30.712Z,6.93
2022-09-07T21:55:58.417Z,6.68
2022-09-07T21:58:27.445Z,6.85
2022-09-07T22:00:55.229Z,7.18
2022-09-07T22:03:24.237Z,7.15
2022-09-07T22:05:51.611Z,6.88
2022-09-07T22:08:18.994Z,6.50
2022-09-07T22:10:46.695Z,6.20
2022-09-07T22:13:14.106Z,6.13
2022-09-07T22:15:42.794Z,6.38
2022-09-07T22:18:12.482Z,5.75
2022-09-07T22:20:40.059Z,5.90
2022-09-07T22:23:07.415Z,6.15
2022-09-07T22:25:34.827Z,6.78
2022-09-07T22:28:02.315Z,6.20
2022-09-07T22:30:29.671Z,5.80
2022-09-07T22:32:58.414Z,5.90
2022-09-07T22:35:26.131Z,6.60
2022-09-07T22:37:53.487Z,6.13
2022-09-07T22:40:20.798Z,5.95
2022-09-07T22:42:48.162Z,5.90
2022-09-07T22:45:15.606Z,6.18
2022-09-07T22:47:43.278Z,6.28
2022-09-07T22:50:12.437Z,5.85
2022-09-07T22:52:39.780Z,6.65
2022-09-07T22:55:07.827Z,5.95
2022-09-07T22:57:35.387Z,5.43
2022-09-07T23:00:02.934Z,5.78
2022-09-07T23:02:30.355Z,5.43
2022-09-07T23:04:57.820Z,5.95
2022-09-07T23:07:26.553Z,5.32
2022-09-07T23:09:53.876Z,6.70
2022-09-07T23:12:21.419Z,4.88
2022-09-07T23:14:48.790Z,5.20
2022-09-07T23:17:16.141Z,5.53
2022-09-07T23:19:43.644Z,5.20
2022-09-07T23:22:11.076Z,5.00
2022-09-07T23:24:41.499Z,5.05
2022-09-07T23:27:09.191Z,5.05
2022-09-07T23:29:36.551Z,4.32
2022-09-07T23:32:04.243Z,4.97
2022-09-07T23:34:31.588Z,4.95
2022-09-07T23:36:58.922Z,4.55
2022-09-07T23:39:26.238Z,4.45
2022-09-07T23:41:54.964Z,4.75
2022-09-07T23:44:22.313Z,4.50
2022-09-07T23:46:49.732Z,4.72
2022-09-07T23:49:17.484Z,4.45
2022-09-07T23:51:44.819Z,4.63
2022-09-07T23:54:12.163Z,4.40
2022-09-07T23:56:39.511Z,4.72
2022-09-07T23:59:08.964Z,4.55
